Time;durP1;ratioP1;P1;durP2;ratioP2;P2;SDS_P1;SDS_P2;PMS_P1;PMS_P2;Temp;Humidity;BMP_temperature;BMP_pressure;BME280_temperature;BME280_humidity;BME280_pressure;Samples;Min_cycle;Max_cycle;Signal;HPM_P1;HPM_P2
2021/12/22 00:00:45;;;;;;;24.3;14.25;;;;;;;-5.62;94.68848;95858.18;;;;
2021/12/22 00:01:45;;;;;;;24.05;16.7;;;;;;;-5.72;94.61621;95865.12;;;;
2021/12/22 00:02:46;;;;;;;24.05;16.7;;;;;;;-5.72;94.61621;95865.12;;;;
2021/12/22 00:03:48;;;;;;;24.05;16.7;;;;;;;-5.72;94.61621;95865.12;;;;
2021/12/22 00:04:49;;;;;;;24.05;16.7;;;;;;;-5.72;94.61621;95865.12;;;;
2021/12/22 00:05:51;;;;;;;24.05;16.7;;;;;;;-5.72;94.61621;95865.12;;;;
2021/12/22 00:06:52;;;;;;;24.05;16.7;;;;;;;-5.72;94.61621;95865.12;;;;
2021/12/22 00:07:53;;;;;;;24.05;16.7;;;;;;;-5.72;94.61621;95865.12;;;;
2021/12/22 00:08:54;;;;;;;24.05;16.7;;;;;;;-5.72;94.61621;95865.12;;;;
2021/12/22 00:09:55;;;;;;;24.05;16.7;;;;;;;-5.72;94.61621;95865.12;;;;
2021/12/22 00:10:55;;;;;;;24.05;16.7;;;;;;;-5.72;94.61621;95865.12;;;;
2021/12/22 00:11:56;;;;;;;24.05;16.7;;;;;;;-5.72;94.61621;95865.12;;;;
2021/12/22 00:12:56;;;;;;;22.4;12.15;;;;;;;-5.83;94.79492;95871.36;;;;
2021/12/22 00:13:57;;;;;;;22.4;12.15;;;;;;;-5.83;94.79492;95871.36;;;;
2021/12/22 00:14:57;;;;;;;22.4;12.15;;;;;;;-5.83;94.79492;95871.36;;;;
2021/12/22 00:15:58;;;;;;;22.4;12.15;;;;;;;-5.83;94.79492;95871.36;;;;
2021/12/22 00:16:58;;;;;;;22.4;12.15;;;;;;;-5.83;94.79492;95871.36;;;;
2021/12/22 00:17:59;;;;;;;22.4;12.15;;;;;;;-5.83;94.79492;95871.36;;;;
2021/12/22 00:19:00;;;;;;;22.4;12.15;;;;;;;-5.83;94.79492;95871.36;;;;
2021/12/22 00:20:00;;;;;;;22.4;12.15;;;;;;;-5.83;94.79492;95871.36;;;;
2021/12/22 00:21:02;;;;;;;22.4;12.15;;;;;;;-5.83;94.79492;95871.36;;;;
2021/12/22 00:22:04;;;;;;;22.4;12.15;;;;;;;-5.83;94.79492;95871.36;;;;
2021/12/22 00:23:04;;;;;;;22.4;12.15;;;;;;;-5.83;94.79492;95871.36;;;;
2021/12/22 00:24:05;;;;;;;28.15;19.55;;;;;;;-5.92;94.8457;95878.17;;;;
2021/12/22 00:25:06;;;;;;;28.15;19.55;;;;;;;-5.92;94.8457;95878.17;;;;
2021/12/22 00:26:07;;;;;;;28.15;19.55;;;;;;;-5.92;94.8457;95878.17;;;;
2021/12/22 00:27:08;;;;;;;28.15;19.55;;;;;;;-5.92;94.8457;95878.17;;;;
2021/12/22 00:28:09;;;;;;;28.15;19.55;;;;;;;-5.92;94.8457;95878.17;;;;
2021/12/22 00:29:10;;;;;;;28.15;19.55;;;;;;;-5.92;94.8457;95878.17;;;;
2021/12/22 00:30:11;;;;;;;28.15;19.55;;;;;;;-5.92;94.8457;95878.17;;;;
2021/12/22 00:31:13;;;;;;;28.15;19.55;;;;;;;-5.92;94.8457;95878.17;;;;
2021/12/22 00:32:16;;;;;;;28.15;19.55;;;;;;;-5.92;94.8457;95878.17;;;;
2021/12/22 00:33:18;;;;;;;28.15;19.55;;;;;;;-5.92;94.8457;95878.17;;;;
2021/12/22 00:34:20;;;;;;;29.1;19.25;;;;;;;-5.95;94.72656;95881.52;;;;
2021/12/22 00:35:21;;;;;;;29.1;19.25;;;;;;;-5.95;94.72656;95881.52;;;;
2021/12/22 00:36:23;;;;;;;29.1;19.25;;;;;;;-5.95;94.72656;95881.52;;;;
2021/12/22 00:37:25;;;;;;;29.1;19.25;;;;;;;-5.95;94.72656;95881.52;;;;
2021/12/22 00:38:27;;;;;;;29.1;19.25;;;;;;;-5.95;94.72656;95881.52;;;;
2021/12/22 00:39:28;;;;;;;29.1;19.25;;;;;;;-5.95;94.72656;95881.52;;;;
2021/12/22 00:40:28;;;;;;;29.1;19.25;;;;;;;-5.95;94.72656;95881.52;;;;
2021/12/22 00:41:29;;;;;;;29.1;19.25;;;;;;;-5.95;94.72656;95881.52;;;;
2021/12/22 00:42:30;;;;;;;29.1;19.25;;;;;;;-5.95;94.72656;95881.52;;;;
2021/12/22 00:43:30;;;;;;;29.1;19.25;;;;;;;-5.95;94.72656;95881.52;;;;
2021/12/22 00:44:31;;;;;;;29.1;19.25;;;;;;;-5.95;94.72656;95881.52;;;;
2021/12/22 00:45:33;;;;;;;27.15;18.5;;;;;;;-6.09;94.7666;95883.51;;;;
2021/12/22 00:46:35;;;;;;;27.15;18.5;;;;;;;-6.09;94.7666;95883.51;;;;
2021/12/22 00:47:36;;;;;;;27.15;18.5;;;;;;;-6.09;94.7666;95883.51;;;;
2021/12/22 00:48:37;;;;;;;27.15;18.5;;;;;;;-6.09;94.7666;95883.51;;;;
2021/12/22 00:49:37;;;;;;;27.15;18.5;;;;;;;-6.09;94.7666;95883.51;;;;
2021/12/22 00:50:38;;;;;;;27.15;18.5;;;;;;;-6.09;94.7666;95883.51;;;;
2021/12/22 00:51:40;;;;;;;27.15;18.5;;;;;;;-6.09;94.7666;95883.51;;;;
2021/12/22 00:52:40;;;;;;;27.15;18.5;;;;;;;-6.09;94.7666;95883.51;;;;
2021/12/22 00:53:41;;;;;;;27.15;18.5;;;;;;;-6.09;94.7666;95883.51;;;;
2021/12/22 00:54:41;;;;;;;27.15;18.5;;;;;;;-6.09;94.7666;95883.51;;;;
2021/12/22 00:55:42;;;;;;;27.15;18.5;;;;;;;-6.09;94.7666;95883.51;;;;
2021/12/22 00:56:43;;;;;;;24.6;18.55;;;;;;;-6.22;95.12695;95885.43;;;;
2021/12/22 00:57:43;;;;;;;24.6;18.55;;;;;;;-6.22;95.12695;95885.43;;;;
2021/12/22 00:58:44;;;;;;;24.6;18.55;;;;;;;-6.22;95.12695;95885.43;;;;
2021/12/22 00:59:44;;;;;;;24.6;18.55;;;;;;;-6.22;95.12695;95885.43;;;;
2021/12/22 01:00:48;;;;;;;24.6;18.55;;;;;;;-6.22;95.12695;95885.43;;;;
2021/12/22 01:01:49;;;;;;;24.6;18.55;;;;;;;-6.22;95.12695;95885.43;;;;
2021/12/22 01:02:49;;;;;;;24.6;18.55;;;;;;;-6.22;95.12695;95885.43;;;;
2021/12/22 01:03:50;;;;;;;24.6;18.55;;;;;;;-6.22;95.12695;95885.43;;;;
2021/12/22 01:04:51;;;;;;;24.6;18.55;;;;;;;-6.22;95.12695;95885.43;;;;
2021/12/22 01:05:52;;;;;;;24.6;18.55;;;;;;;-6.22;95.12695;95885.43;;;;
2021/12/22 01:06:53;;;;;;;24.6;18.55;;;;;;;-6.22;95.12695;95885.43;;;;
2021/12/22 01:07:53;;;;;;;24.2;17;;;;;;;-6.34;95.24316;95885.5;;;;
2021/12/22 01:08:54;;;;;;;24.2;17;;;;;;;-6.34;95.24316;95885.5;;;;
2021/12/22 01:09:55;;;;;;;24.2;17;;;;;;;-6.34;95.24316;95885.5;;;;
2021/12/22 01:10:55;;;;;;;24.2;17;;;;;;;-6.34;95.24316;95885.5;;;;
2021/12/22 01:11:56;;;;;;;24.2;17;;;;;;;-6.34;95.24316;95885.5;;;;
2021/12/22 01:12:57;;;;;;;24.2;17;;;;;;;-6.34;95.24316;95885.5;;;;
2021/12/22 01:14:02;;;;;;;24.2;17;;;;;;;-6.34;95.24316;95885.5;;;;
2021/12/22 01:15:02;;;;;;;24.2;17;;;;;;;-6.34;95.24316;95885.5;;;;
2021/12/22 01:16:05;;;;;;;24.2;17;;;;;;;-6.34;95.24316;95885.5;;;;
2021/12/22 01:17:06;;;;;;;24.2;17;;;;;;;-6.34;95.24316;95885.5;;;;
2021/12/22 01:18:12;;;;;;;24.2;17;;;;;;;-6.34;95.24316;95885.5;;;;
2021/12/22 01:19:16;;;;;;;23.05;16.9;;;;;;;-6.45;95.38086;95901.25;;;;
2021/12/22 01:20:23;;;;;;;23.05;16.9;;;;;;;-6.45;95.38086;95901.25;;;;
2021/12/22 01:21:30;;;;;;;23.05;16.9;;;;;;;-6.45;95.38086;95901.25;;;;
2021/12/22 01:22:46;;;;;;;23.05;16.9;;;;;;;-6.45;95.38086;95901.25;;;;
2021/12/22 01:24:00;;;;;;;23.05;16.9;;;;;;;-6.45;95.38086;95901.25;;;;
2021/12/22 01:25:02;;;;;;;23.05;16.9;;;;;;;-6.45;95.38086;95901.25;;;;
2021/12/22 01:26:04;;;;;;;23.05;16.9;;;;;;;-6.45;95.38086;95901.25;;;;
2021/12/22 01:27:07;;;;;;;23.05;16.9;;;;;;;-6.45;95.38086;95901.25;;;;
2021/12/22 01:28:08;;;;;;;23.05;16.9;;;;;;;-6.45;95.38086;95901.25;;;;
2021/12/22 01:29:09;;;;;;;24.3;17.1;;;;;;;-6.56;95.51855;95914.37;;;;
2021/12/22 01:30:10;;;;;;;24.3;17.1;;;;;;;-6.56;95.51855;95914.37;;;;
2021/12/22 01:31:16;;;;;;;24.3;17.1;;;;;;;-6.56;95.51855;95914.37;;;;
2021/12/22 01:32:17;;;;;;;24.3;17.1;;;;;;;-6.56;95.51855;95914.37;;;;
2021/12/22 01:33:18;;;;;;;24.3;17.1;;;;;;;-6.56;95.51855;95914.37;;;;
2021/12/22 01:34:19;;;;;;;24.3;17.1;;;;;;;-6.56;95.51855;95914.37;;;;
2021/12/22 01:35:19;;;;;;;24.3;17.1;;;;;;;-6.56;95.51855;95914.37;;;;
2021/12/22 01:36:24;;;;;;;24.3;17.1;;;;;;;-6.56;95.51855;95914.37;;;;
2021/12/22 01:37:24;;;;;;;24.3;17.1;;;;;;;-6.56;95.51855;95914.37;;;;
2021/12/22 01:38:25;;;;;;;24.3;17.1;;;;;;;-6.56;95.51855;95914.37;;;;
2021/12/22 01:39:25;;;;;;;24.3;17.1;;;;;;;-6.56;95.51855;95914.37;;;;
2021/12/22 01:40:26;;;;;;;25.15;17;;;;;;;-6.67;95.75;95917.39;;;;
2021/12/22 01:41:27;;;;;;;25.15;17;;;;;;;-6.67;95.75;95917.39;;;;
2021/12/22 01:42:28;;;;;;;25.15;17;;;;;;;-6.67;95.75;95917.39;;;;
2021/12/22 01:43:29;;;;;;;25.15;17;;;;;;;-6.67;95.75;95917.39;;;;
2021/12/22 01:44:31;;;;;;;25.15;17;;;;;;;-6.67;95.75;95917.39;;;;
2021/12/22 01:45:51;;;;;;;25.15;17;;;;;;;-6.67;95.75;95917.39;;;;
2021/12/22 01:52:11;;;;;;;24.85;18.1;;;;;;;-6.75;95.78223;95922.88;;;;
2021/12/22 01:53:12;;;;;;;24.85;18.1;;;;;;;-6.75;95.78223;95922.88;;;;
2021/12/22 01:54:34;;;;;;;24.85;18.1;;;;;;;-6.75;95.78223;95922.88;;;;
2021/12/22 01:55:39;;;;;;;24.85;18.1;;;;;;;-6.75;95.78223;95922.88;;;;
2021/12/22 01:56:44;;;;;;;24.85;18.1;;;;;;;-6.75;95.78223;95922.88;;;;
2021/12/22 01:57:46;;;;;;;24.85;18.1;;;;;;;-6.75;95.78223;95922.88;;;;
2021/12/22 01:58:48;;;;;;;24.85;18.1;;;;;;;-6.75;95.78223;95922.88;;;;
2021/12/22 01:59:51;;;;;;;24.85;18.1;;;;;;;-6.75;95.78223;95922.88;;;;
2021/12/22 02:00:52;;;;;;;24.85;18.1;;;;;;;-6.75;95.78223;95922.88;;;;
2021/12/22 02:01:53;;;;;;;24.85;18.1;;;;;;;-6.75;95.78223;95922.88;;;;
2021/12/22 02:02:54;;;;;;;25.65;18.05;;;;;;;-6.84;96.08887;95904.74;;;;
2021/12/22 02:03:55;;;;;;;25.65;18.05;;;;;;;-6.84;96.08887;95904.74;;;;
2021/12/22 02:04:56;;;;;;;25.65;18.05;;;;;;;-6.84;96.08887;95904.74;;;;
2021/12/22 02:05:56;;;;;;;25.65;18.05;;;;;;;-6.84;96.08887;95904.74;;;;
2021/12/22 02:06:57;;;;;;;25.65;18.05;;;;;;;-6.84;96.08887;95904.74;;;;
2021/12/22 02:08:01;;;;;;;25.65;18.05;;;;;;;-6.84;96.08887;95904.74;;;;
2021/12/22 02:09:01;;;;;;;25.65;18.05;;;;;;;-6.84;96.08887;95904.74;;;;
2021/12/22 02:10:15;;;;;;;25.65;18.05;;;;;;;-6.84;96.08887;95904.74;;;;
2021/12/22 02:11:17;;;;;;;25.65;18.05;;;;;;;-6.84;96.08887;95904.74;;;;
2021/12/22 02:12:18;;;;;;;25.65;18.05;;;;;;;-6.84;96.08887;95904.74;;;;
2021/12/22 02:13:23;;;;;;;24.85;17.5;;;;;;;-6.88;96.29492;95901.54;;;;
2021/12/22 02:14:24;;;;;;;24.85;17.5;;;;;;;-6.88;96.29492;95901.54;;;;
2021/12/22 02:15:28;;;;;;;24.85;17.5;;;;;;;-6.88;96.29492;95901.54;;;;
2021/12/22 02:16:33;;;;;;;24.85;17.5;;;;;;;-6.88;96.29492;95901.54;;;;
2021/12/22 02:17:35;;;;;;;24.85;17.5;;;;;;;-6.88;96.29492;95901.54;;;;
2021/12/22 02:18:36;;;;;;;24.85;17.5;;;;;;;-6.88;96.29492;95901.54;;;;
2021/12/22 02:19:39;;;;;;;24.85;17.5;;;;;;;-6.88;96.29492;95901.54;;;;
2021/12/22 02:20:41;;;;;;;24.85;17.5;;;;;;;-6.88;96.29492;95901.54;;;;
2021/12/22 02:21:47;;;;;;;24.85;17.5;;;;;;;-6.88;96.29492;95901.54;;;;
2021/12/22 02:22:47;;;;;;;24.85;17.5;;;;;;;-6.88;96.29492;95901.54;;;;
2021/12/22 02:23:48;;;;;;;24.85;17.5;;;;;;;-6.88;96.29492;95901.54;;;;
2021/12/22 02:24:50;;;;;;;22.75;16.85;;;;;;;-6.95;96.31836;95899.91;;;;
2021/12/22 02:26:00;;;;;;;22.75;16.85;;;;;;;-6.95;96.31836;95899.91;;;;
2021/12/22 02:27:06;;;;;;;22.75;16.85;;;;;;;-6.95;96.31836;95899.91;;;;
2021/12/22 02:28:14;;;;;;;22.75;16.85;;;;;;;-6.95;96.31836;95899.91;;;;
2021/12/22 02:29:20;;;;;;;22.75;16.85;;;;;;;-6.95;96.31836;95899.91;;;;
2021/12/22 02:30:25;;;;;;;22.75;16.85;;;;;;;-6.95;96.31836;95899.91;;;;
2021/12/22 02:31:25;;;;;;;22.75;16.85;;;;;;;-6.95;96.31836;95899.91;;;;
2021/12/22 02:33:08;;;;;;;22.75;16.85;;;;;;;-6.95;96.31836;95899.91;;;;
2021/12/22 02:34:14;;;;;;;22.75;16.85;;;;;;;-6.95;96.31836;95899.91;;;;
2021/12/22 02:35:14;;;;;;;23.55;17.1;;;;;;;-6.97;96.08984;95896.51;;;;
2021/12/22 02:36:22;;;;;;;23.55;17.1;;;;;;;-6.97;96.08984;95896.51;;;;
2021/12/22 02:37:23;;;;;;;23.55;17.1;;;;;;;-6.97;96.08984;95896.51;;;;
2021/12/22 02:38:25;;;;;;;23.55;17.1;;;;;;;-6.97;96.08984;95896.51;;;;
2021/12/22 02:39:25;;;;;;;23.55;17.1;;;;;;;-6.97;96.08984;95896.51;;;;
2021/12/22 02:40:27;;;;;;;23.55;17.1;;;;;;;-6.97;96.08984;95896.51;;;;
2021/12/22 02:41:29;;;;;;;23.55;17.1;;;;;;;-6.97;96.08984;95896.51;;;;
2021/12/22 02:42:32;;;;;;;23.55;17.1;;;;;;;-6.97;96.08984;95896.51;;;;
2021/12/22 02:43:34;;;;;;;23.55;17.1;;;;;;;-6.97;96.08984;95896.51;;;;
2021/12/22 02:44:36;;;;;;;23.55;17.1;;;;;;;-6.97;96.08984;95896.51;;;;
2021/12/22 02:45:36;;;;;;;23.55;17.1;;;;;;;-6.97;96.08984;95896.51;;;;
2021/12/22 02:46:37;;;;;;;22.9;16.75;;;;;;;-7.01;95.77539;95909.5;;;;
2021/12/22 02:47:39;;;;;;;22.9;16.75;;;;;;;-7.01;95.77539;95909.5;;;;
2021/12/22 02:48:39;;;;;;;22.9;16.75;;;;;;;-7.01;95.77539;95909.5;;;;
2021/12/22 02:49:40;;;;;;;22.9;16.75;;;;;;;-7.01;95.77539;95909.5;;;;
2021/12/22 02:50:41;;;;;;;22.9;16.75;;;;;;;-7.01;95.77539;95909.5;;;;
2021/12/22 02:51:42;;;;;;;22.9;16.75;;;;;;;-7.01;95.77539;95909.5;;;;
2021/12/22 02:52:53;;;;;;;22.9;16.75;;;;;;;-7.01;95.77539;95909.5;;;;
2021/12/22 02:54:03;;;;;;;22.9;16.75;;;;;;;-7.01;95.77539;95909.5;;;;
2021/12/22 02:55:05;;;;;;;22.9;16.75;;;;;;;-7.01;95.77539;95909.5;;;;
2021/12/22 02:56:16;;;;;;;22.9;16.75;;;;;;;-7.01;95.77539;95909.5;;;;
2021/12/22 02:57:24;;;;;;;21.3;15.65;;;;;;;-7.08;95.72754;95912.23;;;;
2021/12/22 02:58:33;;;;;;;21.3;15.65;;;;;;;-7.08;95.72754;95912.23;;;;
2021/12/22 02:59:46;;;;;;;21.3;15.65;;;;;;;-7.08;95.72754;95912.23;;;;
2021/12/22 03:00:59;;;;;;;21.3;15.65;;;;;;;-7.08;95.72754;95912.23;;;;
2021/12/22 03:02:12;;;;;;;21.3;15.65;;;;;;;-7.08;95.72754;95912.23;;;;
2021/12/22 03:03:26;;;;;;;21.3;15.65;;;;;;;-7.08;95.72754;95912.23;;;;
2021/12/22 03:04:31;;;;;;;21.3;15.65;;;;;;;-7.08;95.72754;95912.23;;;;
2021/12/22 03:05:33;;;;;;;21.3;15.65;;;;;;;-7.08;95.72754;95912.23;;;;
2021/12/22 03:06:39;;;;;;;21.3;15.65;;;;;;;-7.08;95.72754;95912.23;;;;
2021/12/22 03:07:40;;;;;;;21.3;15.65;;;;;;;-7.08;95.72754;95912.23;;;;
2021/12/22 03:08:41;;;;;;;22.99999;15.9;;;;;;;-7.13;95.86914;95902.56;;;;
2021/12/22 03:09:42;;;;;;;22.99999;15.9;;;;;;;-7.13;95.86914;95902.56;;;;
2021/12/22 03:10:43;;;;;;;22.99999;15.9;;;;;;;-7.13;95.86914;95902.56;;;;
2021/12/22 03:11:44;;;;;;;22.99999;15.9;;;;;;;-7.13;95.86914;95902.56;;;;
2021/12/22 03:12:47;;;;;;;22.99999;15.9;;;;;;;-7.13;95.86914;95902.56;;;;
2021/12/22 03:13:49;;;;;;;22.99999;15.9;;;;;;;-7.13;95.86914;95902.56;;;;
2021/12/22 03:14:50;;;;;;;22.99999;15.9;;;;;;;-7.13;95.86914;95902.56;;;;
2021/12/22 03:15:50;;;;;;;22.99999;15.9;;;;;;;-7.13;95.86914;95902.56;;;;
2021/12/22 03:16:51;;;;;;;22.99999;15.9;;;;;;;-7.13;95.86914;95902.56;;;;
2021/12/22 03:17:51;;;;;;;22.99999;15.9;;;;;;;-7.13;95.86914;95902.56;;;;
2021/12/22 03:18:53;;;;;;;22.99999;15.9;;;;;;;-7.13;95.86914;95902.56;;;;
2021/12/22 03:19:53;;;;;;;21.9;15.9;;;;;;;-7.18;95.90918;95904.66;;;;
2021/12/22 03:21:01;;;;;;;21.9;15.9;;;;;;;-7.18;95.90918;95904.66;;;;
2021/12/22 03:22:04;;;;;;;21.9;15.9;;;;;;;-7.18;95.90918;95904.66;;;;
2021/12/22 03:23:06;;;;;;;21.9;15.9;;;;;;;-7.18;95.90918;95904.66;;;;
2021/12/22 03:24:06;;;;;;;21.9;15.9;;;;;;;-7.18;95.90918;95904.66;;;;
2021/12/22 03:25:14;;;;;;;21.9;15.9;;;;;;;-7.18;95.90918;95904.66;;;;
2021/12/22 03:26:17;;;;;;;21.9;15.9;;;;;;;-7.18;95.90918;95904.66;;;;
2021/12/22 03:27:19;;;;;;;21.9;15.9;;;;;;;-7.18;95.90918;95904.66;;;;
2021/12/22 03:28:20;;;;;;;21.9;15.9;;;;;;;-7.18;95.90918;95904.66;;;;
2021/12/22 03:29:21;;;;;;;21.9;15.9;;;;;;;-7.18;95.90918;95904.66;;;;
2021/12/22 03:30:21;;;;;;;21.5;15.8;;;;;;;-7.23;95.80469;95907.69;;;;
2021/12/22 03:31:24;;;;;;;21.5;15.8;;;;;;;-7.23;95.80469;95907.69;;;;
2021/12/22 03:32:24;;;;;;;21.5;15.8;;;;;;;-7.23;95.80469;95907.69;;;;
2021/12/22 03:33:25;;;;;;;21.5;15.8;;;;;;;-7.23;95.80469;95907.69;;;;
2021/12/22 03:34:25;;;;;;;21.5;15.8;;;;;;;-7.23;95.80469;95907.69;;;;
2021/12/22 03:35:27;;;;;;;21.5;15.8;;;;;;;-7.23;95.80469;95907.69;;;;
2021/12/22 03:36:28;;;;;;;21.5;15.8;;;;;;;-7.23;95.80469;95907.69;;;;
2021/12/22 03:37:28;;;;;;;21.5;15.8;;;;;;;-7.23;95.80469;95907.69;;;;
2021/12/22 03:38:30;;;;;;;21.5;15.8;;;;;;;-7.23;95.80469;95907.69;;;;
2021/12/22 03:39:32;;;;;;;21.5;15.8;;;;;;;-7.23;95.80469;95907.69;;;;
2021/12/22 03:40:33;;;;;;;21.5;15.8;;;;;;;-7.23;95.80469;95907.69;;;;
2021/12/22 03:41:34;;;;;;;22.25;15.6;;;;;;;-7.32;95.62305;95903.55;;;;
2021/12/22 03:42:35;;;;;;;22.25;15.6;;;;;;;-7.32;95.62305;95903.55;;;;
2021/12/22 03:43:36;;;;;;;22.25;15.6;;;;;;;-7.32;95.62305;95903.55;;;;
2021/12/22 03:44:37;;;;;;;22.25;15.6;;;;;;;-7.32;95.62305;95903.55;;;;
2021/12/22 03:45:37;;;;;;;22.25;15.6;;;;;;;-7.32;95.62305;95903.55;;;;
2021/12/22 03:46:38;;;;;;;22.25;15.6;;;;;;;-7.32;95.62305;95903.55;;;;
2021/12/22 03:47:39;;;;;;;22.25;15.6;;;;;;;-7.32;95.62305;95903.55;;;;
2021/12/22 03:48:40;;;;;;;22.25;15.6;;;;;;;-7.32;95.62305;95903.55;;;;
2021/12/22 03:49:41;;;;;;;22.25;15.6;;;;;;;-7.32;95.62305;95903.55;;;;
2021/12/22 03:50:42;;;;;;;22.25;15.6;;;;;;;-7.32;95.62305;95903.55;;;;
2021/12/22 03:51:42;;;;;;;22.25;15.6;;;;;;;-7.32;95.62305;95903.55;;;;
2021/12/22 03:52:43;;;;;;;22.5;15.95;;;;;;;-7.4;95.63379;95902.86;;;;
2021/12/22 03:53:44;;;;;;;22.5;15.95;;;;;;;-7.4;95.63379;95902.86;;;;
2021/12/22 03:54:45;;;;;;;22.5;15.95;;;;;;;-7.4;95.63379;95902.86;;;;
2021/12/22 03:55:45;;;;;;;22.5;15.95;;;;;;;-7.4;95.63379;95902.86;;;;
2021/12/22 03:56:46;;;;;;;22.5;15.95;;;;;;;-7.4;95.63379;95902.86;;;;
2021/12/22 03:57:46;;;;;;;22.5;15.95;;;;;;;-7.4;95.63379;95902.86;;;;
2021/12/22 03:58:47;;;;;;;22.5;15.95;;;;;;;-7.4;95.63379;95902.86;;;;
2021/12/22 03:59:48;;;;;;;22.5;15.95;;;;;;;-7.4;95.63379;95902.86;;;;
2021/12/22 04:00:50;;;;;;;22.5;15.95;;;;;;;-7.4;95.63379;95902.86;;;;
2021/12/22 04:01:51;;;;;;;22.5;15.95;;;;;;;-7.4;95.63379;95902.86;;;;
2021/12/22 04:02:52;;;;;;;21.65;15.35;;;;;;;-7.48;95.67773;95917.42;;;;
2021/12/22 04:03:57;;;;;;;21.65;15.35;;;;;;;-7.48;95.67773;95917.42;;;;
2021/12/22 04:04:57;;;;;;;21.65;15.35;;;;;;;-7.48;95.67773;95917.42;;;;
2021/12/22 04:05:58;;;;;;;21.65;15.35;;;;;;;-7.48;95.67773;95917.42;;;;
2021/12/22 04:06:59;;;;;;;21.65;15.35;;;;;;;-7.48;95.67773;95917.42;;;;
2021/12/22 04:07:59;;;;;;;21.65;15.35;;;;;;;-7.48;95.67773;95917.42;;;;
2021/12/22 04:09:00;;;;;;;21.65;15.35;;;;;;;-7.48;95.67773;95917.42;;;;
2021/12/22 04:10:09;;;;;;;21.65;15.35;;;;;;;-7.48;95.67773;95917.42;;;;
2021/12/22 04:11:11;;;;;;;21.65;15.35;;;;;;;-7.48;95.67773;95917.42;;;;
2021/12/22 04:12:11;;;;;;;21.65;15.35;;;;;;;-7.48;95.67773;95917.42;;;;
2021/12/22 04:13:12;;;;;;;21.65;15.35;;;;;;;-7.48;95.67773;95917.42;;;;
2021/12/22 04:14:13;;;;;;;20.84999;14.65;;;;;;;-7.55;95.73438;95920.54;;;;
2021/12/22 04:15:14;;;;;;;20.84999;14.65;;;;;;;-7.55;95.73438;95920.54;;;;
2021/12/22 04:16:15;;;;;;;20.84999;14.65;;;;;;;-7.55;95.73438;95920.54;;;;
2021/12/22 04:17:15;;;;;;;20.84999;14.65;;;;;;;-7.55;95.73438;95920.54;;;;
2021/12/22 04:18:16;;;;;;;20.84999;14.65;;;;;;;-7.55;95.73438;95920.54;;;;
2021/12/22 04:19:17;;;;;;;20.84999;14.65;;;;;;;-7.55;95.73438;95920.54;;;;
2021/12/22 04:20:18;;;;;;;20.84999;14.65;;;;;;;-7.55;95.73438;95920.54;;;;
2021/12/22 04:21:19;;;;;;;20.84999;14.65;;;;;;;-7.55;95.73438;95920.54;;;;
2021/12/22 04:22:20;;;;;;;20.84999;14.65;;;;;;;-7.55;95.73438;95920.54;;;;
2021/12/22 04:23:20;;;;;;;20.84999;14.65;;;;;;;-7.55;95.73438;95920.54;;;;
2021/12/22 04:24:22;;;;;;;20.84999;14.65;;;;;;;-7.55;95.73438;95920.54;;;;
2021/12/22 04:25:23;;;;;;;20.45;14.2;;;;;;;-7.61;95.6582;95915.81;;;;
2021/12/22 04:26:23;;;;;;;20.45;14.2;;;;;;;-7.61;95.6582;95915.81;;;;
2021/12/22 04:27:24;;;;;;;20.45;14.2;;;;;;;-7.61;95.6582;95915.81;;;;
2021/12/22 04:28:24;;;;;;;20.45;14.2;;;;;;;-7.61;95.6582;95915.81;;;;
2021/12/22 04:29:25;;;;;;;20.45;14.2;;;;;;;-7.61;95.6582;95915.81;;;;
2021/12/22 04:30:26;;;;;;;20.45;14.2;;;;;;;-7.61;95.6582;95915.81;;;;
2021/12/22 04:31:26;;;;;;;20.45;14.2;;;;;;;-7.61;95.6582;95915.81;;;;
2021/12/22 04:32:27;;;;;;;20.45;14.2;;;;;;;-7.61;95.6582;95915.81;;;;
2021/12/22 04:33:27;;;;;;;20.45;14.2;;;;;;;-7.61;95.6582;95915.81;;;;
2021/12/22 04:34:28;;;;;;;20.45;14.2;;;;;;;-7.61;95.6582;95915.81;;;;
2021/12/22 04:35:28;;;;;;;20.45;14.2;;;;;;;-7.61;95.6582;95915.81;;;;
2021/12/22 04:36:29;;;;;;;20.7;14.2;;;;;;;-7.75;95.85156;95936.88;;;;
2021/12/22 04:37:30;;;;;;;20.7;14.2;;;;;;;-7.75;95.85156;95936.88;;;;
2021/12/22 04:38:31;;;;;;;20.7;14.2;;;;;;;-7.75;95.85156;95936.88;;;;
2021/12/22 04:39:33;;;;;;;20.7;14.2;;;;;;;-7.75;95.85156;95936.88;;;;
2021/12/22 04:40:33;;;;;;;20.7;14.2;;;;;;;-7.75;95.85156;95936.88;;;;
2021/12/22 04:41:34;;;;;;;20.7;14.2;;;;;;;-7.75;95.85156;95936.88;;;;
2021/12/22 04:42:35;;;;;;;20.7;14.2;;;;;;;-7.75;95.85156;95936.88;;;;
2021/12/22 04:43:36;;;;;;;20.7;14.2;;;;;;;-7.75;95.85156;95936.88;;;;
2021/12/22 04:44:36;;;;;;;20.7;14.2;;;;;;;-7.75;95.85156;95936.88;;;;
2021/12/22 04:45:37;;;;;;;20.7;14.2;;;;;;;-7.75;95.85156;95936.88;;;;
2021/12/22 04:46:38;;;;;;;20.7;14.2;;;;;;;-7.75;95.85156;95936.88;;;;
2021/12/22 04:47:38;;;;;;;20;14.4;;;;;;;-7.87;96.12695;95934.29;;;;
2021/12/22 04:48:40;;;;;;;20;14.4;;;;;;;-7.87;96.12695;95934.29;;;;
2021/12/22 04:49:41;;;;;;;20;14.4;;;;;;;-7.87;96.12695;95934.29;;;;
2021/12/22 04:50:41;;;;;;;20;14.4;;;;;;;-7.87;96.12695;95934.29;;;;
2021/12/22 04:51:49;;;;;;;20;14.4;;;;;;;-7.87;96.12695;95934.29;;;;
2021/12/22 04:52:54;;;;;;;20;14.4;;;;;;;-7.87;96.12695;95934.29;;;;
2021/12/22 04:54:03;;;;;;;20;14.4;;;;;;;-7.87;96.12695;95934.29;;;;
2021/12/22 04:55:04;;;;;;;20;14.4;;;;;;;-7.87;96.12695;95934.29;;;;
2021/12/22 04:56:05;;;;;;;20;14.4;;;;;;;-7.87;96.12695;95934.29;;;;
2021/12/22 04:57:05;;;;;;;20;14.4;;;;;;;-7.87;96.12695;95934.29;;;;
2021/12/22 04:58:06;;;;;;;20.95;14.85;;;;;;;-7.94;96.43555;95935.67;;;;
2021/12/22 04:59:07;;;;;;;20.95;14.85;;;;;;;-7.94;96.43555;95935.67;;;;
2021/12/22 05:00:09;;;;;;;20.95;14.85;;;;;;;-7.94;96.43555;95935.67;;;;
2021/12/22 05:01:12;;;;;;;20.95;14.85;;;;;;;-7.94;96.43555;95935.67;;;;
2021/12/22 05:02:13;;;;;;;20.95;14.85;;;;;;;-7.94;96.43555;95935.67;;;;
2021/12/22 05:03:14;;;;;;;20.95;14.85;;;;;;;-7.94;96.43555;95935.67;;;;
2021/12/22 05:04:14;;;;;;;20.95;14.85;;;;;;;-7.94;96.43555;95935.67;;;;
2021/12/22 05:05:15;;;;;;;20.95;14.85;;;;;;;-7.94;96.43555;95935.67;;;;
2021/12/22 05:06:16;;;;;;;20.95;14.85;;;;;;;-7.94;96.43555;95935.67;;;;
2021/12/22 05:07:16;;;;;;;20.95;14.85;;;;;;;-7.94;96.43555;95935.67;;;;
2021/12/22 05:08:18;;;;;;;20.95;14.85;;;;;;;-7.94;96.43555;95935.67;;;;
2021/12/22 05:09:18;;;;;;;21.1;15.65;;;;;;;-8;96.53613;95935.63;;;;
2021/12/22 05:10:19;;;;;;;21.1;15.65;;;;;;;-8;96.53613;95935.63;;;;
2021/12/22 05:11:21;;;;;;;21.1;15.65;;;;;;;-8;96.53613;95935.63;;;;
2021/12/22 05:12:21;;;;;;;21.1;15.65;;;;;;;-8;96.53613;95935.63;;;;
2021/12/22 05:13:22;;;;;;;21.1;15.65;;;;;;;-8;96.53613;95935.63;;;;
2021/12/22 05:14:23;;;;;;;21.1;15.65;;;;;;;-8;96.53613;95935.63;;;;
2021/12/22 05:15:25;;;;;;;21.1;15.65;;;;;;;-8;96.53613;95935.63;;;;
2021/12/22 05:16:26;;;;;;;21.1;15.65;;;;;;;-8;96.53613;95935.63;;;;
2021/12/22 05:17:39;;;;;;;21.1;15.65;;;;;;;-8;96.53613;95935.63;;;;
2021/12/22 05:18:51;;;;;;;21.1;15.65;;;;;;;-8;96.53613;95935.63;;;;
2021/12/22 05:19:51;;;;;;;21.2;15.55;;;;;;;-7.89;97.20117;95937.02;;;;
2021/12/22 05:20:52;;;;;;;21.2;15.55;;;;;;;-7.89;97.20117;95937.02;;;;
2021/12/22 05:21:53;;;;;;;21.2;15.55;;;;;;;-7.89;97.20117;95937.02;;;;
2021/12/22 05:22:53;;;;;;;21.2;15.55;;;;;;;-7.89;97.20117;95937.02;;;;
2021/12/22 05:23:54;;;;;;;21.2;15.55;;;;;;;-7.89;97.20117;95937.02;;;;
2021/12/22 05:24:57;;;;;;;21.2;15.55;;;;;;;-7.89;97.20117;95937.02;;;;
2021/12/22 05:25:58;;;;;;;21.2;15.55;;;;;;;-7.89;97.20117;95937.02;;;;
2021/12/22 05:26:58;;;;;;;21.2;15.55;;;;;;;-7.89;97.20117;95937.02;;;;
2021/12/22 05:27:59;;;;;;;21.2;15.55;;;;;;;-7.89;97.20117;95937.02;;;;
2021/12/22 05:28:59;;;;;;;21.2;15.55;;;;;;;-7.89;97.20117;95937.02;;;;
2021/12/22 05:30:01;;;;;;;21.2;15.55;;;;;;;-7.89;97.20117;95937.02;;;;
2021/12/22 05:31:03;;;;;;;26.15;18.25;;;;;;;-7.39;97.77539;95932.06;;;;
2021/12/22 05:32:04;;;;;;;26.15;18.25;;;;;;;-7.39;97.77539;95932.06;;;;
2021/12/22 05:33:05;;;;;;;26.15;18.25;;;;;;;-7.39;97.77539;95932.06;;;;
2021/12/22 05:34:06;;;;;;;26.15;18.25;;;;;;;-7.39;97.77539;95932.06;;;;
2021/12/22 05:35:07;;;;;;;26.15;18.25;;;;;;;-7.39;97.77539;95932.06;;;;
2021/12/22 05:36:10;;;;;;;26.15;18.25;;;;;;;-7.39;97.77539;95932.06;;;;
2021/12/22 05:37:11;;;;;;;26.15;18.25;;;;;;;-7.39;97.77539;95932.06;;;;
2021/12/22 05:38:11;;;;;;;26.15;18.25;;;;;;;-7.39;97.77539;95932.06;;;;
2021/12/22 05:39:12;;;;;;;26.15;18.25;;;;;;;-7.39;97.77539;95932.06;;;;
2021/12/22 05:40:13;;;;;;;26.15;18.25;;;;;;;-7.39;97.77539;95932.06;;;;
2021/12/22 05:41:13;;;;;;;26.15;18.25;;;;;;;-7.39;97.77539;95932.06;;;;
2021/12/22 05:42:14;;;;;;;26.15;18.25;;;;;;;-7.39;97.77539;95932.06;;;;
2021/12/22 05:43:15;;;;;;;26.15;18.25;;;;;;;-7.39;97.77539;95932.06;;;;
2021/12/22 05:44:16;;;;;;;26.15;18.25;;;;;;;-7.39;97.77539;95932.06;;;;
2021/12/22 05:45:16;;;;;;;26.15;18.25;;;;;;;-7.39;97.77539;95932.06;;;;
2021/12/22 05:46:17;;;;;;;26.15;18.25;;;;;;;-7.39;97.77539;95932.06;;;;
2021/12/22 05:47:17;;;;;;;26.15;18.25;;;;;;;-7.39;97.77539;95932.06;;;;
2021/12/22 05:48:20;;;;;;;26.15;18.25;;;;;;;-7.39;97.77539;95932.06;;;;
2021/12/22 05:49:20;;;;;;;26.15;18.25;;;;;;;-7.39;97.77539;95932.06;;;;
2021/12/22 05:50:21;;;;;;;26.15;18.25;;;;;;;-7.39;97.77539;95932.06;;;;
2021/12/22 05:51:23;;;;;;;26.15;18.25;;;;;;;-7.39;97.77539;95932.06;;;;
2021/12/22 05:52:23;;;;;;;26.15;18.25;;;;;;;-7.39;97.77539;95932.06;;;;
2021/12/22 05:53:24;;;;;;;40.64999;28.05;;;;;;;-6.25;97.60938;95922.92;;;;